Time;durP1;ratioP1;P1;durP2;ratioP2;P2;SDS_P1;SDS_P2;PMS_P1;PMS_P2;Temp;Humidity;BMP_temperature;BMP_pressure;BME280_temperature;BME280_humidity;BME280_pressure;Samples;Min_cycle;Max_cycle;Signal;HPM_P1;HPM_P2
2021/03/04 00:00:19;;;;;;;129.07;51.27;;;5.90;93.20;;;;;;4622191;30;20168;-81
2021/03/04 00:02:46;;;;;;;128.77;48.33;;;5.90;93.30;;;;;;4612456;30;20463;-80
2021/03/04 00:05:14;;;;;;;108.80;44.97;;;5.90;93.30;;;;;;4657972;30;20050;-81
2021/03/04 00:07:41;;;;;;;99.23;41.53;;;5.90;93.40;;;;;;4625019;30;20054;-80
2021/03/04 00:10:13;;;;;;;168.90;57.77;;;5.80;93.40;;;;;;4643010;30;20034;-81
2021/03/04 00:12:41;;;;;;;108.78;45.25;;;5.90;93.50;;;;;;4658446;30;20121;-81
2021/03/04 00:15:09;;;;;;;144.87;53.17;;;5.80;93.80;;;;;;4628888;30;20042;-80
2021/03/04 00:17:36;;;;;;;114.43;47.40;;;5.80;93.60;;;;;;4627025;30;20058;-80
2021/03/04 00:20:10;;;;;;;105.07;44.92;;;5.80;93.60;;;;;;4645078;30;20058;-80
2021/03/04 00:22:37;;;;;;;100.53;42.97;;;5.80;93.70;;;;;;4629138;30;20484;-80
2021/03/04 00:25:05;;;;;;;105.10;45.40;;;5.80;93.60;;;;;;4644384;30;20069;-81
2021/03/04 00:27:31;;;;;;;122.00;47.87;;;5.80;93.60;;;;;;4646990;30;20046;-81
2021/03/04 00:29:58;;;;;;;89.83;40.73;;;5.80;93.60;;;;;;4659776;30;20049;-80
2021/03/04 00:32:25;;;;;;;88.90;40.05;;;5.80;93.60;;;;;;4643422;30;20050;-81
2021/03/04 00:34:52;;;;;;;91.75;37.97;;;5.80;93.60;;;;;;4632228;30;20058;-80
2021/03/04 00:37:19;;;;;;;95.57;40.47;;;5.90;93.50;;;;;;4659045;30;20062;-80
2021/03/04 00:39:45;;;;;;;100.57;42.40;;;5.90;93.50;;;;;;4643066;30;20054;-80
2021/03/04 00:42:12;;;;;;;95.83;38.30;;;5.90;93.40;;;;;;4644360;30;20059;-80
2021/03/04 00:44:38;;;;;;;90.88;38.28;;;5.80;93.50;;;;;;4645169;30;20129;-81
2021/03/04 00:47:05;;;;;;;88.57;37.28;;;5.80;93.40;;;;;;4628019;30;20057;-80
2021/03/04 00:49:31;;;;;;;79.33;34.10;;;5.90;93.40;;;;;;4619283;30;20065;-80
2021/03/04 00:51:58;;;;;;;100.30;41.33;;;5.90;93.40;;;;;;4646981;30;20060;-80
2021/03/04 00:54:25;;;;;;;79.10;33.00;;;5.90;93.40;;;;;;4634254;30;20062;-80
2021/03/04 00:56:52;;;;;;;93.68;37.15;;;5.90;93.40;;;;;;4642778;30;20070;-80
2021/03/04 00:59:18;;;;;;;106.82;42.50;;;6.00;93.30;;;;;;4649571;30;20050;-77
2021/03/04 01:01:44;;;;;;;106.53;41.83;;;5.90;93.40;;;;;;4618108;30;20081;-77
2021/03/04 01:04:11;;;;;;;108.37;41.93;;;5.90;93.40;;;;;;4625123;30;20042;-77
2021/03/04 01:06:38;;;;;;;105.33;42.97;;;5.90;93.50;;;;;;4640492;30;20043;-77
2021/03/04 01:09:06;;;;;;;109.77;40.60;;;5.90;93.50;;;;;;4624693;30;20039;-78
2021/03/04 01:11:33;;;;;;;92.60;36.30;;;5.90;93.60;;;;;;4634117;30;20050;-78
2021/03/04 01:14:00;;;;;;;111.55;39.90;;;5.90;93.60;;;;;;4641687;30;20058;-77
2021/03/04 01:16:26;;;;;;;118.77;45.93;;;5.90;93.50;;;;;;4633721;30;20054;-77
2021/03/04 01:18:53;;;;;;;89.55;35.30;;;5.90;93.60;;;;;;4627952;30;20074;-77
2021/03/04 01:21:19;;;;;;;199.23;56.57;;;5.90;93.60;;;;;;4642564;30;20140;-77
2021/03/04 01:23:46;;;;;;;125.80;47.83;;;5.90;93.60;;;;;;4624982;30;20059;-77
2021/03/04 01:26:13;;;;;;;124.33;48.63;;;5.80;93.70;;;;;;4623713;30;20050;-77
2021/03/04 01:28:39;;;;;;;113.30;44.77;;;5.80;93.80;;;;;;4643268;30;20046;-80
2021/03/04 01:31:06;;;;;;;132.80;45.67;;;5.80;93.80;;;;;;4643175;30;20053;-80
2021/03/04 01:33:32;;;;;;;162.43;52.53;;;5.80;93.90;;;;;;4631701;30;20521;-80
2021/03/04 01:35:59;;;;;;;85.80;32.70;;;5.90;93.90;;;;;;4648701;30;20055;-80
2021/03/04 01:38:25;;;;;;;98.93;40.00;;;5.80;93.80;;;;;;4645070;30;20061;-77
2021/03/04 01:40:52;;;;;;;96.07;39.67;;;5.90;93.80;;;;;;4628726;30;20066;-77
2021/03/04 01:43:18;;;;;;;103.80;42.40;;;5.90;93.80;;;;;;4642639;30;20088;-77
2021/03/04 01:45:45;;;;;;;96.60;40.97;;;5.90;93.70;;;;;;4646154;30;20054;-77
2021/03/04 01:48:12;;;;;;;94.27;38.40;;;5.90;93.70;;;;;;4660920;30;20078;-78
2021/03/04 01:50:39;;;;;;;81.50;36.23;;;5.90;93.70;;;;;;4617395;30;20055;-77
2021/03/04 01:53:05;;;;;;;90.43;38.97;;;5.90;93.70;;;;;;4626832;30;20065;-77
2021/03/04 01:55:32;;;;;;;84.55;36.97;;;5.90;93.60;;;;;;4601634;30;20395;-77
2021/03/04 01:57:59;;;;;;;74.57;34.33;;;5.90;93.60;;;;;;4639914;30;20051;-77
2021/03/04 02:00:27;;;;;;;99.13;41.95;;;5.90;93.60;;;;;;4616133;30;20043;-80
2021/03/04 02:02:54;;;;;;;92.18;39.65;;;5.90;93.70;;;;;;4643462;30;20061;-78
2021/03/04 02:05:25;;;;;;;86.63;34.93;;;5.90;93.60;;;;;;4660598;30;20062;-80
2021/03/04 02:08:21;;;;;;;88.83;37.10;;;5.80;93.60;;;;;;4611633;30;20068;-79
2021/03/04 02:11:16;;;;;;;112.17;43.83;;;5.80;93.70;;;;;;4628160;30;20047;-77
2021/03/04 02:13:48;;;;;;;110.53;42.00;;;5.80;93.70;;;;;;4624087;30;20050;-79
2021/03/04 02:16:18;;;;;;;138.40;51.93;;;5.80;93.70;;;;;;4644165;30;20062;-80
2021/03/04 02:18:59;;;;;;;87.10;38.40;;;5.80;93.80;;;;;;4613961;30;20254;-80
2021/03/04 02:22:01;;;;;;;79.43;35.60;;;5.70;94.00;;;;;;4635160;30;20054;-80
2021/03/04 02:24:50;;;;;;;88.00;35.17;;;5.70;93.80;;;;;;4648454;30;20597;-80
2021/03/04 02:27:21;;;;;;;71.53;30.57;;;5.70;93.80;;;;;;4634211;30;20055;-80
2021/03/04 02:29:59;;;;;;;68.47;29.07;;;5.70;93.80;;;;;;4644570;30;20072;-80
2021/03/04 02:32:27;;;;;;;62.93;28.50;;;5.70;93.70;;;;;;4648043;30;20042;-80
2021/03/04 02:35:28;;;;;;;68.80;29.27;;;5.80;93.70;;;;;;4645793;30;20053;-80
2021/03/04 02:38:16;;;;;;;70.87;28.93;;;5.80;93.60;;;;;;4614166;30;20088;-81
2021/03/04 02:40:46;;;;;;;78.27;33.43;;;5.80;93.50;;;;;;4647875;30;20077;-80
2021/03/04 02:43:18;;;;;;;89.33;34.50;;;5.70;93.50;;;;;;4630810;30;20055;-80
2021/03/04 02:45:46;;;;;;;79.28;31.95;;;5.70;93.60;;;;;;4636866;30;20077;-80
2021/03/04 02:48:14;;;;;;;125.67;40.40;;;5.60;93.70;;;;;;4656883;30;20050;-80
2021/03/04 02:50:43;;;;;;;83.73;34.60;;;5.70;94.00;;;;;;4644916;30;20601;-80
2021/03/04 02:53:11;;;;;;;102.77;40.63;;;5.70;93.80;;;;;;4647281;30;20077;-79
2021/03/04 02:55:39;;;;;;;111.73;42.10;;;5.70;93.80;;;;;;4642242;30;20049;-79
2021/03/04 02:58:08;;;;;;;92.27;35.23;;;5.60;93.90;;;;;;4627174;30;20506;-79
2021/03/04 03:00:36;;;;;;;82.87;33.70;;;5.60;94.00;;;;;;4661629;30;20616;-80
2021/03/04 03:03:08;;;;;;;128.27;44.70;;;5.60;94.00;;;;;;4658413;30;20046;-80
2021/03/04 03:05:35;;;;;;;96.40;37.73;;;5.60;94.00;;;;;;4660907;30;20062;-80
2021/03/04 03:08:04;;;;;;;125.90;45.60;;;5.60;94.00;;;;;;4645258;30;20061;-80
2021/03/04 03:10:31;;;;;;;87.77;37.87;;;5.60;94.10;;;;;;4615133;30;20050;-80
2021/03/04 03:13:00;;;;;;;89.28;35.78;;;5.50;94.10;;;;;;4645079;30;20050;-80
2021/03/04 03:15:27;;;;;;;73.60;31.63;;;5.50;94.10;;;;;;4647243;30;20053;-80
2021/03/04 03:17:54;;;;;;;81.27;33.97;;;5.50;94.10;;;;;;4631388;30;20057;-80
2021/03/04 03:20:22;;;;;;;90.20;36.87;;;5.50;94.10;;;;;;4634398;30;20038;-80
2021/03/04 03:22:50;;;;;;;77.07;33.43;;;5.50;94.10;;;;;;4643410;30;21562;-80
2021/03/04 03:25:17;;;;;;;75.13;32.07;;;5.40;94.10;;;;;;4646535;30;20051;-80
2021/03/04 03:27:45;;;;;;;68.17;29.20;;;5.50;94.10;;;;;;4617687;30;20046;-80
2021/03/04 03:30:21;;;;;;;75.93;32.60;;;5.40;94.10;;;;;;4645505;30;20051;-81
2021/03/04 03:33:06;;;;;;;73.33;31.97;;;5.40;94.00;;;;;;4644695;30;20050;-81
2021/03/04 03:35:34;;;;;;;92.87;38.47;;;5.40;94.00;;;;;;4656751;30;20514;-80
2021/03/04 03:38:03;;;;;;;87.13;35.23;;;5.30;94.00;;;;;;4639538;30;20042;-80
2021/03/04 03:40:31;;;;;;;95.87;36.27;;;5.30;94.10;;;;;;4615651;30;21563;-81
2021/03/04 03:43:01;;;;;;;113.60;42.10;;;5.30;94.20;;;;;;4641023;30;20105;-80
2021/03/04 03:45:34;;;;;;;120.83;40.33;;;5.30;94.30;;;;;;4662789;30;20041;-81
2021/03/04 03:48:03;;;;;;;192.23;47.27;;;5.20;94.40;;;;;;4628009;30;20069;-80
2021/03/04 03:50:30;;;;;;;101.20;37.80;;;5.20;94.40;;;;;;4645660;30;20061;-80
2021/03/04 03:52:57;;;;;;;102.93;37.97;;;5.20;94.50;;;;;;4643645;30;20058;-80
2021/03/04 03:55:24;;;;;;;99.83;37.93;;;5.10;94.60;;;;;;4663127;30;20046;-81
2021/03/04 03:57:52;;;;;;;114.07;40.10;;;5.20;94.60;;;;;;4646376;30;20046;-80
2021/03/04 04:00:24;;;;;;;127.90;38.90;;;5.20;94.70;;;;;;4627791;30;20132;-80
2021/03/04 04:03:11;;;;;;;175.43;44.65;;;5.20;94.60;;;;;;4644923;30;20059;-81
2021/03/04 04:05:38;;;;;;;131.63;40.83;;;5.20;94.80;;;;;;4661328;30;20047;-81
2021/03/04 04:08:05;;;;;;;105.00;38.37;;;5.20;94.80;;;;;;4644008;30;20539;-78
2021/03/04 04:10:35;;;;;;;156.93;48.90;;;5.10;94.80;;;;;;4627428;30;20061;-78
2021/03/04 04:13:03;;;;;;;100.53;38.10;;;5.20;94.90;;;;;;4628438;30;20050;-78
2021/03/04 04:15:30;;;;;;;108.20;41.17;;;5.20;94.80;;;;;;4652863;30;20043;-78
2021/03/04 04:17:59;;;;;;;105.33;39.03;;;5.20;94.80;;;;;;4626320;30;20054;-78
2021/03/04 04:20:26;;;;;;;83.63;33.83;;;5.20;94.70;;;;;;4628077;30;20409;-78
2021/03/04 04:22:55;;;;;;;84.13;32.80;;;5.10;94.70;;;;;;4652973;30;20067;-78
2021/03/04 04:25:23;;;;;;;93.57;35.20;;;5.10;94.70;;;;;;4640934;30;20148;-78
2021/03/04 04:27:51;;;;;;;82.20;33.83;;;5.10;94.80;;;;;;4656311;30;20089;-80
2021/03/04 04:30:18;;;;;;;74.17;31.50;;;5.10;94.80;;;;;;4628837;30;20461;-81
2021/03/04 04:32:45;;;;;;;110.23;38.87;;;5.10;94.80;;;;;;4643465;30;20054;-81
2021/03/04 04:35:13;;;;;;;72.67;30.77;;;5.20;95.00;;;;;;4644119;30;20054;-81
2021/03/04 04:37:40;;;;;;;98.53;37.83;;;5.20;94.70;;;;;;4639020;30;20730;-81
2021/03/04 04:40:08;;;;;;;76.23;31.47;;;5.20;94.60;;;;;;4643843;30;20050;-81
2021/03/04 04:42:35;;;;;;;63.10;26.73;;;5.20;94.60;;;;;;4640883;30;20050;-81
2021/03/04 04:45:05;;;;;;;66.87;26.77;;;5.20;94.60;;;;;;4646185;30;20042;-81
2021/03/04 04:47:31;;;;;;;68.77;29.80;;;5.20;94.60;;;;;;4629836;30;20050;-81
2021/03/04 04:49:58;;;;;;;77.70;33.53;;;5.20;94.50;;;;;;4603199;30;20057;-81
2021/03/04 04:52:25;;;;;;;67.17;30.23;;;5.20;94.40;;;;;;4644354;30;20070;-80
2021/03/04 04:54:51;;;;;;;71.53;29.97;;;5.20;94.50;;;;;;4629770;30;20054;-80
2021/03/04 04:57:18;;;;;;;71.00;29.27;;;5.20;94.50;;;;;;4622310;30;20074;-80
2021/03/04 04:59:45;;;;;;;63.13;26.17;;;5.20;94.40;;;;;;4627820;30;20066;-81
2021/03/04 05:02:12;;;;;;;68.77;28.77;;;5.20;94.40;;;;;;4642931;30;20058;-81
2021/03/04 05:04:38;;;;;;;69.80;29.67;;;5.20;94.30;;;;;;4628216;30;20500;-80
2021/03/04 05:07:05;;;;;;;69.70;31.40;;;5.20;94.30;;;;;;4629963;30;20070;-81
2021/03/04 05:09:31;;;;;;;95.83;33.83;;;5.10;94.30;;;;;;4613792;30;20055;-81
2021/03/04 05:11:58;;;;;;;66.80;28.43;;;5.10;94.20;;;;;;4643671;30;20050;-81
2021/03/04 05:14:24;;;;;;;66.73;26.43;;;5.10;94.20;;;;;;4658705;30;20046;-80
2021/03/04 05:16:51;;;;;;;63.13;28.10;;;5.10;94.30;;;;;;4643529;30;20058;-80
2021/03/04 05:19:32;;;;;;;70.90;27.97;;;5.10;94.20;;;;;;4642372;30;20046;-81
2021/03/04 05:21:58;;;;;;;65.43;28.53;;;5.10;94.30;;;;;;4658060;30;20063;-81
2021/03/04 05:24:26;;;;;;;74.80;28.73;;;5.10;94.20;;;;;;4657557;30;20054;-80
2021/03/04 05:26:53;;;;;;;60.63;25.80;;;5.10;94.20;;;;;;4644534;30;20054;-81
2021/03/04 05:29:19;;;;;;;63.97;25.93;;;5.10;94.20;;;;;;4629183;30;20885;-81
2021/03/04 05:31:46;;;;;;;59.27;24.87;;;5.10;94.20;;;;;;4642667;30;20519;-80
2021/03/04 05:34:13;;;;;;;67.50;28.47;;;5.20;94.20;;;;;;4616113;30;20062;-79
2021/03/04 05:36:39;;;;;;;88.67;35.60;;;5.20;94.10;;;;;;4642551;30;20046;-78
2021/03/04 05:39:06;;;;;;;71.23;28.27;;;5.20;94.00;;;;;;4639748;30;20049;-78
2021/03/04 05:41:34;;;;;;;73.83;30.67;;;5.20;94.00;;;;;;4656424;30;20153;-79
2021/03/04 05:44:01;;;;;;;71.43;30.23;;;5.20;94.10;;;;;;4611805;30;20055;-79
2021/03/04 05:46:29;;;;;;;73.13;30.33;;;5.20;94.10;;;;;;4641100;30;20034;-79
2021/03/04 05:48:56;;;;;;;85.20;33.13;;;5.20;94.10;;;;;;4612894;30;20523;-78
2021/03/04 05:51:26;;;;;;;66.70;27.03;;;5.20;94.10;;;;;;4655375;30;20061;-79
2021/03/04 05:53:57;;;;;;;78.50;30.40;;;5.10;94.10;;;;;;4652965;30;20050;-78
2021/03/04 05:56:25;;;;;;;83.57;33.53;;;5.10;94.20;;;;;;4639593;30;20062;-78
2021/03/04 05:58:52;;;;;;;71.83;29.87;;;5.10;94.20;;;;;;4627808;30;20059;-77
2021/03/04 06:01:19;;;;;;;80.93;32.83;;;5.00;94.20;;;;;;4634532;30;20051;-78
2021/03/04 06:03:46;;;;;;;69.57;29.70;;;5.10;94.30;;;;;;4621109;30;20061;-78
2021/03/04 06:06:13;;;;;;;75.33;29.57;;;5.00;94.30;;;;;;4621173;30;20051;-78
2021/03/04 06:08:39;;;;;;;70.30;28.30;;;5.00;94.30;;;;;;4623820;30;20137;-78
2021/03/04 06:11:06;;;;;;;61.27;25.73;;;5.10;94.20;;;;;;4610472;30;20471;-78
2021/03/04 06:13:33;;;;;;;73.03;29.37;;;5.10;94.20;;;;;;4653143;30;20042;-78
2021/03/04 06:16:00;;;;;;;77.50;32.30;;;5.20;94.20;;;;;;4638912;30;20051;-78
2021/03/04 06:18:41;;;;;;;75.53;30.63;;;5.20;94.20;;;;;;4658915;30;20046;-78
2021/03/04 06:21:28;;;;;;;59.27;25.33;;;5.20;94.20;;;;;;4626222;30;20061;-79
2021/03/04 06:23:57;;;;;;;60.20;25.13;;;5.20;94.20;;;;;;4627227;30;20054;-78
2021/03/04 06:26:36;;;;;;;61.53;25.57;;;5.20;94.20;;;;;;4626454;30;20052;-78
2021/03/04 06:29:13;;;;;;;83.27;31.80;;;5.20;94.10;;;;;;4629286;30;20046;-78
2021/03/04 06:31:41;;;;;;;76.47;30.93;;;5.20;94.20;;;;;;4643520;30;20061;-78
2021/03/04 06:34:21;;;;;;;65.57;26.57;;;5.20;94.10;;;;;;4645246;30;20046;-80
2021/03/04 06:36:59;;;;;;;73.57;29.90;;;5.20;94.20;;;;;;4630329;30;20057;-80
2021/03/04 06:39:39;;;;;;;65.63;26.20;;;5.20;94.20;;;;;;4643534;30;20042;-79
2021/03/04 06:42:06;;;;;;;68.60;27.73;;;5.20;94.10;;;;;;4649900;30;20061;-79
2021/03/04 06:44:43;;;;;;;79.50;31.27;;;5.20;94.10;;;;;;4631927;30;20051;-78
2021/03/04 06:47:18;;;;;;;78.90;28.40;;;5.20;94.10;;;;;;4634024;30;20053;-79
2021/03/04 06:49:45;;;;;;;72.67;30.00;;;5.20;94.20;;;;;;4628780;30;20411;-78
2021/03/04 06:52:29;;;;;;;104.80;39.20;;;5.10;94.10;;;;;;4642497;30;20085;-80
2021/03/04 06:55:13;;;;;;;70.63;29.33;;;5.10;94.10;;;;;;4613906;30;20051;-83
2021/03/04 06:57:40;;;;;;;79.80;31.00;;;5.10;94.10;;;;;;4655258;30;20160;-79
2021/03/04 07:00:18;;;;;;;76.70;31.23;;;5.10;94.10;;;;;;4616874;30;20097;-79
2021/03/04 07:02:58;;;;;;;84.37;34.00;;;5.10;94.10;;;;;;4615047;30;20050;-78
2021/03/04 07:05:26;;;;;;;71.33;28.80;;;5.10;94.10;;;;;;4630053;30;20581;-79
2021/03/04 07:07:57;;;;;;;71.80;29.30;;;5.10;94.00;;;;;;4615812;30;20050;-79
2021/03/04 07:10:26;;;;;;;66.47;26.30;;;5.10;94.10;;;;;;4627357;30;20050;-79
2021/03/04 07:12:53;;;;;;;62.93;27.87;;;5.10;94.00;;;;;;4625306;30;20051;-80
2021/03/04 07:15:21;;;;;;;92.70;41.50;;;5.10;94.00;;;;;;4642667;30;20043;-79
2021/03/04 07:17:49;;;;;;;83.33;33.77;;;5.10;94.00;;;;;;4607499;30;20046;-80
2021/03/04 07:20:18;;;;;;;80.37;30.07;;;5.10;94.00;;;;;;4643875;30;20047;-79
2021/03/04 07:22:47;;;;;;;74.73;29.77;;;5.10;93.90;;;;;;4655572;30;20916;-81
2021/03/04 07:25:17;;;;;;;80.22;30.02;;;5.10;93.90;;;;;;4615521;30;20491;-79
2021/03/04 07:27:43;;;;;;;71.60;27.20;;;5.00;94.00;;;;;;4625501;30;20415;-79
2021/03/04 07:30:12;;;;;;;61.87;25.27;;;5.00;94.00;;;;;;4612285;30;20038;-78
2021/03/04 07:32:41;;;;;;;62.93;24.03;;;5.00;94.00;;;;;;4637256;30;20058;-76
2021/03/04 07:35:15;;;;;;;68.60;26.83;;;5.10;94.00;;;;;;4641444;30;20395;-79
2021/03/04 07:37:42;;;;;;;57.93;23.23;;;5.10;93.90;;;;;;4636425;30;20419;-78
2021/03/04 07:40:12;;;;;;;67.20;25.70;;;5.20;93.90;;;;;;4609016;30;20057;-78
2021/03/04 07:42:38;;;;;;;70.23;26.00;;;5.10;93.80;;;;;;4624833;30;20061;-78
2021/03/04 07:45:13;;;;;;;64.97;24.07;;;5.10;93.80;;;;;;4623605;30;20066;-78
2021/03/04 07:47:40;;;;;;;62.73;24.70;;;5.20;93.80;;;;;;4625117;30;20054;-78
2021/03/04 07:50:26;;;;;;;63.23;24.23;;;5.20;93.80;;;;;;4626121;30;20057;-78
2021/03/04 07:53:05;;;;;;;64.27;25.17;;;5.10;93.70;;;;;;4628711;30;20533;-80
2021/03/04 07:55:39;;;;;;;80.77;29.80;;;5.20;93.70;;;;;;4622148;30;20454;-78
2021/03/04 07:58:15;;;;;;;66.53;25.23;;;5.20;93.70;;;;;;4625299;30;20047;-78
2021/03/04 08:00:41;;;;;;;66.27;24.00;;;5.20;93.70;;;;;;4628774;30;20050;-78
2021/03/04 08:03:08;;;;;;;60.30;23.80;;;5.20;93.70;;;;;;4627125;30;20065;-78
2021/03/04 08:05:36;;;;;;;76.03;26.80;;;5.30;93.70;;;;;;4641235;30;20556;-78
2021/03/04 08:08:25;;;;;;;69.10;25.73;;;5.30;93.70;;;;;;4625895;30;20063;-78
2021/03/04 08:10:56;;;;;;;60.53;22.93;;;5.30;93.60;;;;;;4649132;30;20059;-78
2021/03/04 08:13:33;;;;;;;63.57;23.50;;;5.30;93.60;;;;;;4625440;30;20042;-80
2021/03/04 08:16:00;;;;;;;89.23;32.50;;;5.30;93.60;;;;;;4629592;30;20636;-77
2021/03/04 08:18:27;;;;;;;85.93;30.57;;;5.20;93.50;;;;;;4638634;30;20058;-78
2021/03/04 08:21:04;;;;;;;58.20;23.03;;;5.20;93.60;;;;;;4639799;30;20408;-78
2021/03/04 08:23:42;;;;;;;68.20;25.13;;;5.20;93.70;;;;;;4626909;30;20396;-81
2021/03/04 08:26:38;;;;;;;78.00;26.93;;;5.20;93.70;;;;;;4628686;30;20176;-78
2021/03/04 08:29:13;;;;;;;100.97;31.33;;;5.20;93.80;;;;;;4610088;30;20061;-78
2021/03/04 08:31:44;;;;;;;104.20;33.67;;;5.30;93.80;;;;;;4641778;30;20053;-78
2021/03/04 08:34:11;;;;;;;79.20;26.92;;;5.20;93.80;;;;;;4639947;30;20047;-78
2021/03/04 08:36:43;;;;;;;104.13;32.33;;;5.20;93.80;;;;;;4642130;30;20054;-79
2021/03/04 08:39:10;;;;;;;79.20;27.98;;;5.20;94.20;;;;;;4642461;30;20038;-79
2021/03/04 08:41:37;;;;;;;85.30;30.23;;;5.10;93.90;;;;;;4627443;30;20518;-83
2021/03/04 08:44:12;;;;;;;95.77;31.20;;;5.10;93.90;;;;;;4621975;30;20063;-79
2021/03/04 08:46:40;;;;;;;67.83;25.77;;;5.10;94.00;;;;;;4642418;30;20085;-79
2021/03/04 08:49:07;;;;;;;61.53;24.13;;;5.00;94.00;;;;;;4658319;30;20046;-79
2021/03/04 08:51:42;;;;;;;56.13;21.90;;;5.10;94.00;;;;;;4629867;30;20046;-77
2021/03/04 08:54:25;;;;;;;48.93;20.10;;;5.10;94.00;;;;;;4641328;30;20062;-78
2021/03/04 08:57:05;;;;;;;59.00;23.20;;;5.20;93.90;;;;;;4628831;30;20492;-78
2021/03/04 08:59:32;;;;;;;62.87;22.87;;;5.20;93.70;;;;;;4641238;30;20495;-78
2021/03/04 09:02:00;;;;;;;63.23;23.17;;;5.30;93.70;;;;;;4630419;30;20057;-78
2021/03/04 09:04:28;;;;;;;67.47;26.23;;;5.30;93.70;;;;;;4628770;30;20050;-79
2021/03/04 09:06:55;;;;;;;63.40;26.07;;;5.30;93.60;;;;;;4629879;30;20050;-80
2021/03/04 09:09:27;;;;;;;63.13;24.57;;;5.40;93.50;;;;;;4642209;30;20054;-79
2021/03/04 09:11:54;;;;;;;58.77;22.30;;;5.40;93.50;;;;;;4626641;30;20042;-79
2021/03/04 09:14:26;;;;;;;63.40;23.80;;;5.30;93.40;;;;;;4641953;30;20062;-80
2021/03/04 09:16:56;;;;;;;59.40;22.73;;;5.40;93.50;;;;;;4628321;30;20904;-80
2021/03/04 09:19:53;;;;;;;59.20;23.07;;;5.40;93.40;;;;;;4642373;30;20058;-79
2021/03/04 09:22:19;;;;;;;65.87;26.13;;;5.40;93.40;;;;;;4627453;30;20047;-79
2021/03/04 09:24:47;;;;;;;62.03;23.90;;;5.40;93.40;;;;;;4632616;30;20065;-80
2021/03/04 09:27:17;;;;;;;66.30;23.77;;;5.40;93.40;;;;;;4641893;30;20050;-79
2021/03/04 09:29:44;;;;;;;62.30;24.20;;;5.50;93.30;;;;;;4628029;30;20443;-79
2021/03/04 09:32:12;;;;;;;56.47;22.03;;;5.40;93.30;;;;;;4615987;30;20050;-80
2021/03/04 09:34:40;;;;;;;61.73;22.47;;;5.40;93.40;;;;;;4612350;30;20058;-80
2021/03/04 09:37:13;;;;;;;59.27;22.20;;;5.40;93.30;;;;;;4641483;30;20057;-79
2021/03/04 09:39:41;;;;;;;;;;;5.40;93.30;;;;;;4654044;30;20038;-80
2021/03/04 09:42:08;;;;;;;54.90;19.47;;;5.40;93.40;;;;;;4624425;30;19938;-80
2021/03/04 09:44:56;;;;;;;53.80;19.30;;;5.40;93.40;;;;;;4629541;30;20059;-80
2021/03/04 09:47:25;;;;;;;52.10;20.07;;;5.50;93.40;;;;;;4624818;30;20058;-80
2021/03/04 09:49:52;;;;;;;56.33;21.40;;;5.50;93.40;;;;;;4625289;30;20100;-80
2021/03/04 09:52:24;;;;;;;48.13;19.03;;;5.50;93.30;;;;;;4629716;30;20055;-80
2021/03/04 09:54:52;;;;;;;42.37;17.17;;;5.50;93.30;;;;;;4611106;30;20487;-80
2021/03/04 09:57:21;;;;;;;42.30;17.97;;;5.50;93.30;;;;;;4629848;30;20066;-80
2021/03/04 09:59:53;;;;;;;42.13;17.97;;;5.60;93.30;;;;;;4619259;30;20050;-80
2021/03/04 10:02:25;;;;;;;45.77;18.50;;;5.60;93.20;;;;;;4631302;30;20038;-80
2021/03/04 10:04:57;;;;;;;50.70;19.92;;;5.70;93.20;;;;;;4611056;30;20550;-80
2021/03/04 10:07:29;;;;;;;42.47;16.00;;;5.70;92.90;;;;;;4629658;30;20050;-82
2021/03/04 10:09:56;;;;;;;43.13;18.03;;;5.70;92.90;;;;;;4629445;30;20786;-80
2021/03/04 10:12:23;;;;;;;46.73;19.60;;;5.70;92.90;;;;;;4646131;30;20046;-80
2021/03/04 10:14:53;;;;;;;42.60;17.73;;;5.60;92.90;;;;;;4658363;30;20054;-82
2021/03/04 10:17:20;;;;;;;43.20;17.83;;;5.60;92.90;;;;;;4629522;30;20053;-79
2021/03/04 10:19:47;;;;;;;47.80;19.27;;;5.60;92.80;;;;;;4628083;30;20061;-79
2021/03/04 10:22:14;;;;;;;38.27;15.63;;;5.60;92.70;;;;;;4659594;30;20065;-79
2021/03/04 10:24:41;;;;;;;46.07;17.57;;;5.60;92.70;;;;;;4616326;30;20047;-79
2021/03/04 10:27:07;;;;;;;40.30;16.93;;;5.60;92.70;;;;;;4645285;30;20085;-79
2021/03/04 10:29:37;;;;;;;34.20;14.57;;;5.50;92.60;;;;;;4629953;30;20066;-79
2021/03/04 10:32:04;;;;;;;37.97;14.87;;;5.50;92.70;;;;;;4630251;30;20911;-79
2021/03/04 10:34:31;;;;;;;34.23;14.43;;;5.50;92.70;;;;;;4629917;30;20487;-79
2021/03/04 10:36:58;;;;;;;31.77;14.07;;;5.60;92.70;;;;;;4629754;30;20058;-79
2021/03/04 10:39:24;;;;;;;34.07;15.20;;;5.60;92.70;;;;;;4614579;30;20053;-79
2021/03/04 10:41:51;;;;;;;35.90;15.73;;;5.70;92.60;;;;;;4646079;30;20069;-78
2021/03/04 10:44:17;;;;;;;31.10;14.00;;;5.70;92.60;;;;;;4662567;30;20058;-79
2021/03/04 10:46:44;;;;;;;28.83;12.37;;;5.70;92.50;;;;;;4646411;30;20046;-77
2021/03/04 10:49:11;;;;;;;25.60;11.67;;;5.70;92.40;;;;;;4631214;30;20038;-79
2021/03/04 10:51:37;;;;;;;24.40;11.07;;;5.70;92.40;;;;;;4611517;30;20039;-79
2021/03/04 10:54:04;;;;;;;22.43;10.73;;;5.80;92.30;;;;;;4624747;30;20053;-78
2021/03/04 10:56:30;;;;;;;24.40;10.57;;;5.90;92.20;;;;;;4641700;30;20054;-78
2021/03/04 10:58:57;;;;;;;29.57;11.43;;;5.90;92.20;;;;;;4641754;30;20610;-78
2021/03/04 11:01:24;;;;;;;27.03;12.43;;;6.00;92.10;;;;;;4640683;30;20055;-78
2021/03/04 11:03:50;;;;;;;32.33;13.43;;;6.00;91.90;;;;;;4616236;30;20047;-78
2021/03/04 11:06:17;;;;;;;29.90;13.27;;;5.90;91.60;;;;;;4629320;30;20046;-78
2021/03/04 11:08:43;;;;;;;26.30;11.13;;;5.90;91.70;;;;;;4642155;30;20110;-78
2021/03/04 11:11:10;;;;;;;31.40;14.30;;;5.80;91.80;;;;;;4614351;30;20061;-77
2021/03/04 11:13:36;;;;;;;28.03;12.53;;;5.90;91.90;;;;;;4642753;30;20054;-80
2021/03/04 11:16:03;;;;;;;27.17;13.80;;;5.90;91.90;;;;;;4617791;30;20400;-81
2021/03/04 11:18:30;;;;;;;31.00;14.47;;;5.90;91.80;;;;;;4609231;30;20047;-75
2021/03/04 11:20:56;;;;;;;27.77;12.33;;;5.90;91.90;;;;;;4627543;30;20066;-76
2021/03/04 11:23:23;;;;;;;21.47;11.07;;;5.90;91.90;;;;;;4611487;30;20050;-77
2021/03/04 11:25:49;;;;;;;26.33;13.17;;;5.90;91.90;;;;;;4627968;30;20050;-77
2021/03/04 11:28:16;;;;;;;28.77;13.60;;;5.90;91.80;;;;;;4614321;30;20054;-77
2021/03/04 11:30:42;;;;;;;20.77;10.00;;;5.90;91.80;;;;;;4629034;30;20050;-77
2021/03/04 11:33:09;;;;;;;17.25;9.15;;;5.90;91.80;;;;;;4640608;30;20050;-77
2021/03/04 11:35:35;;;;;;;19.37;9.53;;;5.90;91.70;;;;;;4614243;30;20042;-76
2021/03/04 11:38:02;;;;;;;15.17;7.83;;;5.90;91.90;;;;;;4603061;30;20057;-77
2021/03/04 11:40:28;;;;;;;15.50;7.53;;;5.80;91.60;;;;;;4626941;30;20053;-80
2021/03/04 11:42:55;;;;;;;14.47;8.03;;;5.80;91.70;;;;;;4657990;30;20054;-80
2021/03/04 11:45:22;;;;;;;14.33;7.80;;;5.70;91.50;;;;;;4604870;30;20145;-79
2021/03/04 11:47:48;;;;;;;14.47;7.20;;;5.70;91.50;;;;;;4627698;30;20058;-78
2021/03/04 11:50:15;;;;;;;13.20;7.07;;;5.70;91.50;;;;;;4628879;30;20555;-78
2021/03/04 11:52:41;;;;;;;9.90;5.70;;;5.80;91.50;;;;;;4639509;30;20058;-78
2021/03/04 11:55:09;;;;;;;8.63;5.33;;;5.80;91.40;;;;;;4642204;30;20804;-78
2021/03/04 11:57:36;;;;;;;8.80;4.93;;;5.80;91.10;;;;;;4624793;30;20047;-78
2021/03/04 12:00:05;;;;;;;8.63;4.90;;;5.80;91.00;;;;;;4628841;30;20042;-81
2021/03/04 12:02:31;;;;;;;8.67;4.40;;;5.90;90.90;;;;;;4641887;30;20051;-80
2021/03/04 12:04:58;;;;;;;6.77;3.97;;;6.00;90.90;;;;;;4628167;30;20609;-78
2021/03/04 12:07:24;;;;;;;8.27;4.27;;;6.20;90.70;;;;;;4626198;30;20046;-79
2021/03/04 12:09:50;;;;;;;7.30;3.75;;;6.50;90.60;;;;;;4603855;30;20054;-81
2021/03/04 12:12:17;;;;;;;19.03;11.57;;;6.60;89.30;;;;;;4629820;30;20055;-78
2021/03/04 12:14:44;;;;;;;14.55;8.55;;;6.80;88.70;;;;;;4639553;30;20062;-79
2021/03/04 12:17:10;;;;;;;9.15;4.70;;;6.90;88.10;;;;;;4643155;30;20077;-79
2021/03/04 12:19:37;;;;;;;6.70;4.20;;;6.90;85.90;;;;;;4657466;30;20046;-80
2021/03/04 12:22:03;;;;;;;6.18;3.42;;;6.90;85.20;;;;;;4627768;30;20080;-81
2021/03/04 12:24:31;;;;;;;9.88;2.60;;;6.90;85.00;;;;;;4622773;30;20055;-79
2021/03/04 12:26:58;;;;;;;4.90;3.03;;;6.80;84.70;;;;;;4624390;30;20046;-81
2021/03/04 12:29:24;;;;;;;6.03;3.03;;;6.80;85.20;;;;;;4612132;30;20038;-81
2021/03/04 12:31:51;;;;;;;5.73;3.40;;;6.90;84.90;;;;;;4656835;30;20046;-81
2021/03/04 12:34:18;;;;;;;7.10;3.20;;;6.90;84.40;;;;;;4619022;30;20043;-81
2021/03/04 12:36:45;;;;;;;5.57;3.05;;;7.00;84.30;;;;;;4643849;30;20057;-78
2021/03/04 12:39:13;;;;;;;5.60;3.60;;;7.00;84.30;;;;;;4640934;30;20412;-78
2021/03/04 12:41:40;;;;;;;4.95;2.65;;;7.00;83.10;;;;;;4626409;30;20066;-79
2021/03/04 12:44:10;;;;;;;4.88;2.67;;;7.00;83.30;;;;;;4614426;30;20896;-80
2021/03/04 12:46:37;;;;;;;3.65;2.25;;;7.00;83.50;;;;;;4615220;30;20513;-80
2021/03/04 12:49:03;;;;;;;4.93;2.67;;;7.00;83.50;;;;;;4613653;30;20055;-80